AIRESC3 ELLX-ZZZZ
Flight info
| Callsign | AIRESC3 |
|---|---|
| Flight time | N/A |
| Altitude | 1000 |
| Route | ELLX/24 RESCUE |
| Aircraft | EC45/L-V/N |
Departure
| Time | 2026-05-05 10:04 |
|---|---|
| Airport | Luxembourg-Findel International Airport (ELLX) |
Arrival
| Time | N/A |
|---|---|
| Airport | ZZZZ |
| Time | Latitude | Longitude | Altitude | Speed | Heading |
|---|---|---|---|---|---|
| 2026-05-05 09:33 | 49.62502 | 6.19890 | 1201 ft | 5 kts | 259° |
| 2026-05-05 09:34 | 49.62501 | 6.19887 | 1201 ft | 0 kts | 259° |
| 2026-05-05 09:40 | 49.62493 | 6.19890 | 1207 ft | 6 kts | 148° |
| 2026-05-05 09:40 | 49.62463 | 6.19920 | 1218 ft | 4 kts | 147° |
| 2026-05-05 09:40 | 49.62452 | 6.19926 | 1221 ft | 2 kts | 148° |
| 2026-05-05 09:40 | 49.62391 | 6.19981 | 1243 ft | 10 kts | 238° |
| 2026-05-05 09:41 | 49.62242 | 6.19580 | 1370 ft | 65 kts | 233° |
| 2026-05-05 09:41 | 49.61826 | 6.19502 | 1624 ft | 77 kts | 144° |
| 2026-05-05 09:41 | 49.61613 | 6.20374 | 1715 ft | 97 kts | 105° |
| 2026-05-05 09:41 | 49.61360 | 6.21384 | 1732 ft | 106 kts | 120° |
| 2026-05-05 09:42 | 49.61003 | 6.22418 | 1722 ft | 112 kts | 120° |
| 2026-05-05 09:42 | 49.60631 | 6.23500 | 1706 ft | 116 kts | 119° |
| 2026-05-05 09:42 | 49.60252 | 6.24627 | 1654 ft | 119 kts | 118° |
| 2026-05-05 09:42 | 49.59880 | 6.25770 | 1675 ft | 120 kts | 119° |
| 2026-05-05 09:43 | 49.59514 | 6.26929 | 1617 ft | 120 kts | 118° |
| 2026-05-05 09:43 | 49.59166 | 6.28084 | 1595 ft | 120 kts | 117° |
| 2026-05-05 09:43 | 49.58820 | 6.29236 | 1615 ft | 116 kts | 117° |
| 2026-05-05 09:43 | 49.58474 | 6.30385 | 1608 ft | 118 kts | 117° |
| 2026-05-05 09:44 | 49.58137 | 6.31545 | 1612 ft | 117 kts | 117° |
| 2026-05-05 09:44 | 49.57798 | 6.32693 | 1632 ft | 114 kts | 116° |
| 2026-05-05 09:44 | 49.57459 | 6.33791 | 1618 ft | 115 kts | 116° |
| 2026-05-05 09:44 | 49.57121 | 6.34903 | 1617 ft | 112 kts | 117° |
| 2026-05-05 09:45 | 49.56808 | 6.35993 | 1597 ft | 114 kts | 118° |
| 2026-05-05 09:45 | 49.56496 | 6.37101 | 1605 ft | 112 kts | 117° |
| 2026-05-05 09:45 | 49.56185 | 6.38219 | 1609 ft | 113 kts | 116° |
| 2026-05-05 09:45 | 49.55874 | 6.39333 | 1601 ft | 115 kts | 118° |
| 2026-05-05 09:46 | 49.55565 | 6.40462 | 1602 ft | 115 kts | 117° |
| 2026-05-05 09:46 | 49.55225 | 6.41594 | 1605 ft | 117 kts | 120° |
| 2026-05-05 09:46 | 49.54838 | 6.42714 | 1609 ft | 118 kts | 121° |
| 2026-05-05 09:46 | 49.54472 | 6.43793 | 1602 ft | 112 kts | 121° |
| 2026-05-05 09:47 | 49.54095 | 6.44882 | 1611 ft | 117 kts | 121° |
| 2026-05-05 09:47 | 49.53730 | 6.45986 | 1606 ft | 113 kts | 121° |
| 2026-05-05 09:47 | 49.53373 | 6.47061 | 1602 ft | 114 kts | 121° |
| 2026-05-05 09:47 | 49.53010 | 6.48125 | 1600 ft | 115 kts | 121° |
| 2026-05-05 09:48 | 49.52641 | 6.49216 | 1615 ft | 112 kts | 120° |
| 2026-05-05 09:48 | 49.52271 | 6.50295 | 1606 ft | 114 kts | 121° |
| 2026-05-05 09:48 | 49.51887 | 6.51338 | 1624 ft | 110 kts | 124° |
| 2026-05-05 09:48 | 49.51466 | 6.52294 | 1692 ft | 106 kts | 129° |
| 2026-05-05 09:49 | 49.51073 | 6.53192 | 1688 ft | 93 kts | 126° |
| 2026-05-05 09:49 | 49.50783 | 6.53991 | 1707 ft | 77 kts | 129° |
| 2026-05-05 09:49 | 49.50438 | 6.54021 | 1623 ft | 54 kts | 246° |
| 2026-05-05 09:49 | 49.50661 | 6.53781 | 1515 ft | 44 kts | 38° |
| 2026-05-05 09:50 | 49.50927 | 6.53845 | 1470 ft | 37 kts | 299° |
| 2026-05-05 09:50 | 49.50816 | 6.53693 | 1412 ft | 28 kts | 154° |
| 2026-05-05 09:50 | 49.50719 | 6.53713 | 1281 ft | 2 kts | 146° |
| 2026-05-05 09:50 | 49.50709 | 6.53723 | 1260 ft | 0 kts | 145° |
| 2026-05-05 10:03 | 49.50707 | 6.53725 | 1295 ft | 0 kts | 147° |
| 2026-05-05 10:04 | 49.50587 | 6.53705 | 1537 ft | 49 kts | 198° |
| 2026-05-05 10:04 | 49.50636 | 6.53154 | 1884 ft | 82 kts | 328° |
| 2026-05-05 10:04 | 49.51274 | 6.53145 | 2047 ft | 106 kts | 7° |
| 2026-05-05 10:04 | 49.52051 | 6.53418 | 2057 ft | 121 kts | 12° |
| 2026-05-05 10:05 | 49.52915 | 6.53714 | 2016 ft | 132 kts | 12° |
| 2026-05-05 10:05 | 49.53844 | 6.54008 | 1887 ft | 140 kts | 12° |
| 2026-05-05 10:05 | 49.54804 | 6.54272 | 1861 ft | 140 kts | 9° |
| 2026-05-05 10:05 | 49.55769 | 6.54501 | 1818 ft | 141 kts | 8° |
| 2026-05-05 10:06 | 49.56743 | 6.54695 | 1765 ft | 141 kts | 6° |
| 2026-05-05 10:06 | 49.57718 | 6.54851 | 1669 ft | 140 kts | 5° |
| 2026-05-05 10:06 | 49.58691 | 6.54966 | 1603 ft | 140 kts | 4° |
| 2026-05-05 10:06 | 49.59648 | 6.55055 | 1530 ft | 139 kts | 4° |
| 2026-05-05 10:07 | 49.60609 | 6.55178 | 1432 ft | 137 kts | 5° |
| 2026-05-05 10:07 | 49.61525 | 6.55432 | 1446 ft | 131 kts | 21° |
| 2026-05-05 10:07 | 49.62385 | 6.55862 | 1546 ft | 128 kts | 18° |
| 2026-05-05 10:07 | 49.63230 | 6.56245 | 1619 ft | 126 kts | 17° |
| 2026-05-05 10:08 | 49.64069 | 6.56601 | 1688 ft | 126 kts | 16° |
| 2026-05-05 10:08 | 49.64929 | 6.56960 | 1689 ft | 129 kts | 16° |
| 2026-05-05 10:08 | 49.65807 | 6.57329 | 1693 ft | 132 kts | 15° |
| 2026-05-05 10:08 | 49.66688 | 6.57702 | 1652 ft | 134 kts | 15° |
| 2026-05-05 10:09 | 49.67588 | 6.58080 | 1620 ft | 134 kts | 17° |
| 2026-05-05 10:09 | 49.68490 | 6.58456 | 1584 ft | 134 kts | 16° |
| 2026-05-05 10:09 | 49.69394 | 6.58827 | 1467 ft | 134 kts | 16° |
| 2026-05-05 10:09 | 49.70293 | 6.59201 | 1403 ft | 133 kts | 19° |
| 2026-05-05 10:10 | 49.71111 | 6.59824 | 1391 ft | 129 kts | 33° |
| 2026-05-05 10:10 | 49.71866 | 6.60562 | 1448 ft | 127 kts | 35° |
| 2026-05-05 10:10 | 49.72594 | 6.61336 | 1509 ft | 128 kts | 37° |
| 2026-05-05 10:10 | 49.73312 | 6.62165 | 1542 ft | 130 kts | 40° |
| 2026-05-05 10:11 | 49.74073 | 6.62942 | 1557 ft | 132 kts | 34° |
| 2026-05-05 10:11 | 49.74880 | 6.63549 | 1444 ft | 130 kts | 9° |
| 2026-05-05 10:11 | 49.75703 | 6.63530 | 1166 ft | 104 kts | 355° |
| 2026-05-05 10:11 | 49.76303 | 6.63452 | 974 ft | 71 kts | 21° |
| 2026-05-05 10:12 | 49.76379 | 6.63843 | 800 ft | 30 kts | 149° |
| 2026-05-05 10:12 | 49.76237 | 6.63968 | 616 ft | 19 kts | 156° |
| 2026-05-05 10:12 | 49.76176 | 6.64009 | 495 ft | 2 kts | 158° |
| 2026-05-05 10:12 | 49.76172 | 6.64010 | 489 ft | 0 kts | 157° |
| 2026-05-05 10:17 | 49.76171 | 6.64009 | 496 ft | 1 kts | 159° |
| 2026-05-05 10:17 | 49.76188 | 6.63971 | 785 ft | 5 kts | 160° |
| 2026-05-05 10:17 | 49.76030 | 6.64081 | 1066 ft | 54 kts | 132° |
| 2026-05-05 10:17 | 49.75748 | 6.64759 | 1194 ft | 92 kts | 124° |
| 2026-05-05 10:18 | 49.75355 | 6.65668 | 1257 ft | 105 kts | 126° |
| 2026-05-05 10:18 | 49.74946 | 6.66583 | 1452 ft | 102 kts | 128° |
| 2026-05-05 10:18 | 49.74478 | 6.67372 | 1686 ft | 98 kts | 139° |
| 2026-05-05 10:18 | 49.73963 | 6.68111 | 1823 ft | 104 kts | 139° |
| 2026-05-05 10:19 | 49.73395 | 6.68864 | 1872 ft | 111 kts | 141° |
| 2026-05-05 10:19 | 49.72782 | 6.69627 | 1909 ft | 115 kts | 144° |
| 2026-05-05 10:19 | 49.72133 | 6.70394 | 1891 ft | 119 kts | 145° |
| 2026-05-05 10:19 | 49.71466 | 6.71151 | 1878 ft | 121 kts | 146° |
| 2026-05-05 10:20 | 49.70808 | 6.71988 | 1867 ft | 124 kts | 136° |
| 2026-05-05 10:20 | 49.70185 | 6.72924 | 1863 ft | 125 kts | 138° |
| 2026-05-05 10:20 | 49.69561 | 6.73847 | 1876 ft | 123 kts | 139° |
| 2026-05-05 10:20 | 49.68954 | 6.74728 | 1947 ft | 117 kts | 139° |
| 2026-05-05 10:21 | 49.68364 | 6.75562 | 2066 ft | 112 kts | 140° |
| 2026-05-05 10:21 | 49.67791 | 6.76340 | 2221 ft | 107 kts | 142° |
| 2026-05-05 10:21 | 49.67230 | 6.77058 | 2374 ft | 103 kts | 143° |
| 2026-05-05 10:21 | 49.66667 | 6.77725 | 2495 ft | 103 kts | 146° |
| 2026-05-05 10:22 | 49.66062 | 6.78399 | 2533 ft | 112 kts | 143° |
| 2026-05-05 10:22 | 49.65533 | 6.79254 | 2494 ft | 108 kts | 136° |
| 2026-05-05 10:22 | 49.65046 | 6.80086 | 2449 ft | 102 kts | 137° |
| 2026-05-05 10:22 | 49.64574 | 6.80828 | 2252 ft | 90 kts | 139° |
| 2026-05-05 10:23 | 49.64221 | 6.81520 | 2067 ft | 78 kts | 98° |
| 2026-05-05 10:23 | 49.64502 | 6.82044 | 1863 ft | 65 kts | 352° |
| 2026-05-05 10:23 | 49.64613 | 6.81632 | 1782 ft | 39 kts | 231° |
| 2026-05-05 10:23 | 49.64475 | 6.81345 | 1678 ft | 22 kts | 216° |
| 2026-05-05 10:24 | 49.64432 | 6.81262 | 1568 ft | 1 kts | 219° |
| 2026-05-05 10:24 | 49.64430 | 6.81259 | 1567 ft | 0 kts | 219° |
| 2026-05-05 10:48 | 49.64430 | 6.81258 | 1562 ft | 0 kts | 214° |
| 2026-05-05 10:49 | 49.64374 | 6.81246 | 1649 ft | 28 kts | 181° |
| 2026-05-05 10:49 | 49.64096 | 6.81572 | 1917 ft | 52 kts | 147° |
| 2026-05-05 10:49 | 49.63790 | 6.81923 | 2320 ft | 58 kts | 146° |
| 2026-05-05 10:49 | 49.63485 | 6.82437 | 2612 ft | 73 kts | 137° |
| 2026-05-05 10:50 | 49.63104 | 6.83054 | 2779 ft | 86 kts | 135° |
| 2026-05-05 10:50 | 49.62686 | 6.83800 | 2837 ft | 100 kts | 135° |
| 2026-05-05 10:50 | 49.62187 | 6.84649 | 2846 ft | 109 kts | 135° |
| 2026-05-05 10:50 | 49.61662 | 6.85525 | 2833 ft | 116 kts | 134° |
| 2026-05-05 10:51 | 49.61109 | 6.86429 | 2834 ft | 121 kts | 135° |
| 2026-05-05 10:51 | 49.60523 | 6.87421 | 2842 ft | 124 kts | 135° |
| 2026-05-05 10:51 | 49.59962 | 6.88401 | 2840 ft | 123 kts | 134° |
| 2026-05-05 10:51 | 49.59399 | 6.89400 | 2845 ft | 123 kts | 134° |
| 2026-05-05 10:52 | 49.58855 | 6.90383 | 2837 ft | 120 kts | 134° |
| 2026-05-05 10:52 | 49.58309 | 6.91373 | 2839 ft | 122 kts | 134° |
| 2026-05-05 10:52 | 49.57752 | 6.92364 | 2842 ft | 122 kts | 133° |
| 2026-05-05 10:52 | 49.57186 | 6.93358 | 2848 ft | 123 kts | 135° |
| 2026-05-05 10:53 | 49.56640 | 6.94350 | 2842 ft | 122 kts | 133° |
| 2026-05-05 10:53 | 49.56059 | 6.95331 | 2840 ft | 124 kts | 136° |
| 2026-05-05 10:53 | 49.55478 | 6.96286 | 2847 ft | 122 kts | 135° |
| 2026-05-05 10:53 | 49.54891 | 6.97240 | 2842 ft | 122 kts | 137° |
| 2026-05-05 10:54 | 49.54334 | 6.98181 | 2844 ft | 120 kts | 135° |
| 2026-05-05 10:54 | 49.53757 | 6.99140 | 2845 ft | 123 kts | 137° |
| 2026-05-05 10:54 | 49.53189 | 7.00096 | 2840 ft | 121 kts | 136° |
| 2026-05-05 10:54 | 49.52622 | 7.01059 | 2851 ft | 120 kts | 136° |
| 2026-05-05 10:55 | 49.52059 | 7.02020 | 2847 ft | 121 kts | 135° |
| 2026-05-05 10:55 | 49.51483 | 7.02975 | 2848 ft | 122 kts | 136° |
| 2026-05-05 10:55 | 49.50906 | 7.03928 | 2845 ft | 121 kts | 135° |
| 2026-05-05 10:55 | 49.50331 | 7.04883 | 2844 ft | 122 kts | 136° |
| 2026-05-05 10:56 | 49.49758 | 7.05819 | 2846 ft | 121 kts | 136° |
| 2026-05-05 10:56 | 49.49183 | 7.06769 | 2848 ft | 122 kts | 137° |
| 2026-05-05 10:56 | 49.48613 | 7.07730 | 2849 ft | 121 kts | 136° |
| 2026-05-05 10:56 | 49.48053 | 7.08691 | 2848 ft | 121 kts | 136° |
| 2026-05-05 10:57 | 49.47482 | 7.09648 | 2852 ft | 122 kts | 137° |
| 2026-05-05 10:57 | 49.46922 | 7.10606 | 2851 ft | 121 kts | 136° |
| 2026-05-05 10:57 | 49.46357 | 7.11568 | 2853 ft | 120 kts | 136° |
| 2026-05-05 10:57 | 49.45803 | 7.12529 | 2848 ft | 121 kts | 135° |
| 2026-05-05 10:58 | 49.45235 | 7.13487 | 2850 ft | 121 kts | 137° |
| 2026-05-05 10:58 | 49.44675 | 7.14444 | 2850 ft | 121 kts | 136° |
| 2026-05-05 10:58 | 49.44099 | 7.15414 | 2855 ft | 123 kts | 135° |
| 2026-05-05 10:58 | 49.43509 | 7.16381 | 2856 ft | 124 kts | 136° |
| 2026-05-05 10:59 | 49.42913 | 7.17344 | 2855 ft | 124 kts | 137° |
| 2026-05-05 10:59 | 49.42326 | 7.18324 | 2855 ft | 124 kts | 135° |
| 2026-05-05 10:59 | 49.41738 | 7.19300 | 2851 ft | 125 kts | 137° |
| 2026-05-05 10:59 | 49.41142 | 7.20248 | 2853 ft | 124 kts | 138° |
| 2026-05-05 11:00 | 49.40535 | 7.21199 | 2853 ft | 125 kts | 138° |
| 2026-05-05 11:00 | 49.39929 | 7.22152 | 2856 ft | 125 kts | 137° |
| 2026-05-05 11:00 | 49.39319 | 7.23096 | 2854 ft | 124 kts | 137° |
| 2026-05-05 11:00 | 49.38700 | 7.24027 | 2855 ft | 124 kts | 139° |
| 2026-05-05 11:01 | 49.38090 | 7.24970 | 2860 ft | 124 kts | 137° |
| 2026-05-05 11:01 | 49.37473 | 7.25916 | 2860 ft | 125 kts | 138° |
| 2026-05-05 11:01 | 49.36859 | 7.26855 | 2856 ft | 125 kts | 139° |
| 2026-05-05 11:01 | 49.36239 | 7.27793 | 2851 ft | 125 kts | 138° |
| 2026-05-05 11:02 | 49.35624 | 7.28710 | 2839 ft | 124 kts | 140° |
| 2026-05-05 11:02 | 49.35000 | 7.29633 | 2827 ft | 124 kts | 139° |
| 2026-05-05 11:02 | 49.34378 | 7.30547 | 2792 ft | 122 kts | 139° |
| 2026-05-05 11:02 | 49.33778 | 7.31435 | 2617 ft | 116 kts | 139° |
| 2026-05-05 11:03 | 49.33231 | 7.32283 | 2323 ft | 108 kts | 137° |
| 2026-05-05 11:03 | 49.32747 | 7.33095 | 2065 ft | 97 kts | 138° |
| 2026-05-05 11:03 | 49.32442 | 7.33564 | 1908 ft | 90 kts | 142° |
| 2026-05-05 11:03 | 49.32001 | 7.34192 | 1730 ft | 82 kts | 144° |
| 2026-05-05 11:04 | 49.31610 | 7.34740 | 1572 ft | 69 kts | 143° |
| 2026-05-05 11:04 | 49.31268 | 7.35154 | 1463 ft | 56 kts | 167° |
| 2026-05-05 11:04 | 49.30943 | 7.35078 | 1338 ft | 46 kts | 221° |
| 2026-05-05 11:04 | 49.30768 | 7.34761 | 1187 ft | 32 kts | 240° |
| 2026-05-05 11:05 | 49.30683 | 7.34559 | 1056 ft | 12 kts | 242° |
| 2026-05-05 11:05 | 49.30663 | 7.34500 | 977 ft | 2 kts | 242° |
| 2026-05-05 11:05 | 49.30662 | 7.34498 | 964 ft | 0 kts | 242° |
| 2026-05-05 11:12 | 49.30662 | 7.34499 | 978 ft | 1 kts | 244° |
| 2026-05-05 11:12 | 49.30697 | 7.34557 | 1173 ft | 4 kts | 245° |
| 2026-05-05 11:12 | 49.30747 | 7.34153 | 1432 ft | 61 kts | 272° |
| 2026-05-05 11:12 | 49.30818 | 7.33425 | 1742 ft | 73 kts | 268° |
| 2026-05-05 11:13 | 49.30819 | 7.32569 | 1959 ft | 89 kts | 265° |
| 2026-05-05 11:13 | 49.30812 | 7.31542 | 2051 ft | 103 kts | 267° |
| 2026-05-05 11:13 | 49.30804 | 7.30380 | 2079 ft | 115 kts | 267° |
| 2026-05-05 11:13 | 49.30798 | 7.29112 | 2057 ft | 123 kts | 267° |
| 2026-05-05 11:14 | 49.30794 | 7.27777 | 2088 ft | 121 kts | 268° |
| 2026-05-05 11:14 | 49.30792 | 7.26489 | 2067 ft | 122 kts | 268° |
| 2026-05-05 11:14 | 49.30793 | 7.25207 | 2058 ft | 122 kts | 269° |
| 2026-05-05 11:14 | 49.30800 | 7.23892 | 2060 ft | 122 kts | 268° |
| 2026-05-05 11:15 | 49.30810 | 7.22598 | 2058 ft | 121 kts | 269° |
| 2026-05-05 11:15 | 49.30820 | 7.21305 | 2059 ft | 121 kts | 269° |
| 2026-05-05 11:15 | 49.30830 | 7.20023 | 2060 ft | 119 kts | 269° |
| 2026-05-05 11:15 | 49.30840 | 7.18756 | 2060 ft | 119 kts | 269° |
| 2026-05-05 11:16 | 49.30850 | 7.17493 | 2057 ft | 120 kts | 269° |
| 2026-05-05 11:16 | 49.30861 | 7.16225 | 2054 ft | 121 kts | 269° |
| 2026-05-05 11:16 | 49.30872 | 7.14937 | 2055 ft | 120 kts | 268° |
| 2026-05-05 11:16 | 49.30884 | 7.13667 | 2062 ft | 119 kts | 268° |
| 2026-05-05 11:17 | 49.30895 | 7.12373 | 2056 ft | 123 kts | 269° |
| 2026-05-05 11:17 | 49.30905 | 7.11087 | 2057 ft | 119 kts | 268° |
| 2026-05-05 11:17 | 49.30917 | 7.09806 | 2059 ft | 120 kts | 268° |
| 2026-05-05 11:17 | 49.30928 | 7.08553 | 2044 ft | 118 kts | 268° |
| 2026-05-05 11:18 | 49.30944 | 7.07283 | 2055 ft | 121 kts | 268° |
| 2026-05-05 11:18 | 49.30956 | 7.06012 | 2056 ft | 118 kts | 268° |
| 2026-05-05 11:18 | 49.30968 | 7.04751 | 2062 ft | 119 kts | 268° |
| 2026-05-05 11:18 | 49.30980 | 7.03483 | 2060 ft | 119 kts | 268° |
| 2026-05-05 11:19 | 49.30990 | 7.02216 | 2061 ft | 119 kts | 268° |
| 2026-05-05 11:19 | 49.31000 | 7.00940 | 2056 ft | 120 kts | 268° |
| 2026-05-05 11:19 | 49.31011 | 6.99674 | 2065 ft | 117 kts | 268° |
| 2026-05-05 11:19 | 49.31021 | 6.98422 | 2058 ft | 120 kts | 268° |
| 2026-05-05 11:20 | 49.31033 | 6.97133 | 2062 ft | 120 kts | 268° |
| 2026-05-05 11:20 | 49.31043 | 6.95861 | 2062 ft | 119 kts | 268° |
| 2026-05-05 11:20 | 49.31054 | 6.94585 | 2063 ft | 120 kts | 268° |
| 2026-05-05 11:20 | 49.31066 | 6.93299 | 2060 ft | 122 kts | 269° |
| 2026-05-05 11:21 | 49.31078 | 6.92020 | 2065 ft | 120 kts | 269° |
| 2026-05-05 11:21 | 49.31089 | 6.90738 | 2061 ft | 121 kts | 268° |
| 2026-05-05 11:21 | 49.31101 | 6.89434 | 2069 ft | 122 kts | 269° |
| 2026-05-05 11:21 | 49.31107 | 6.88157 | 2063 ft | 118 kts | 268° |
| 2026-05-05 11:22 | 49.31117 | 6.86878 | 2062 ft | 121 kts | 269° |
| 2026-05-05 11:22 | 49.31127 | 6.85593 | 2065 ft | 119 kts | 268° |
| 2026-05-05 11:22 | 49.31136 | 6.84319 | 2062 ft | 121 kts | 267° |
| 2026-05-05 11:22 | 49.31144 | 6.83037 | 2066 ft | 118 kts | 268° |
| 2026-05-05 11:23 | 49.31153 | 6.81766 | 2054 ft | 121 kts | 269° |
| 2026-05-05 11:23 | 49.31164 | 6.80475 | 2062 ft | 119 kts | 268° |
| 2026-05-05 11:23 | 49.31171 | 6.79209 | 2054 ft | 120 kts | 268° |
| 2026-05-05 11:23 | 49.31181 | 6.77928 | 2061 ft | 119 kts | 268° |
| 2026-05-05 11:24 | 49.31189 | 6.76664 | 2055 ft | 119 kts | 269° |
| 2026-05-05 11:24 | 49.31199 | 6.75382 | 2063 ft | 119 kts | 267° |
| 2026-05-05 11:24 | 49.31214 | 6.74128 | 2123 ft | 121 kts | 270° |
| 2026-05-05 11:24 | 49.31322 | 6.72822 | 2082 ft | 125 kts | 277° |
| 2026-05-05 11:25 | 49.31486 | 6.71556 | 1936 ft | 115 kts | 278° |
| 2026-05-05 11:25 | 49.31625 | 6.70406 | 1747 ft | 103 kts | 271° |
| 2026-05-05 11:25 | 49.31601 | 6.69382 | 1497 ft | 91 kts | 256° |
| 2026-05-05 11:25 | 49.31431 | 6.68494 | 1264 ft | 82 kts | 253° |
| 2026-05-05 11:26 | 49.31303 | 6.67760 | 1130 ft | 56 kts | 249° |
| 2026-05-05 11:26 | 49.31227 | 6.67334 | 1121 ft | 26 kts | 254° |
| 2026-05-05 11:26 | 49.31282 | 6.67218 | 1121 ft | 12 kts | 224° |
| 2026-05-05 11:26 | 49.31282 | 6.67185 | 1112 ft | 0 kts | 163° |
| 2026-05-05 11:30 | 49.31281 | 6.67184 | 1119 ft | 3 kts | 158° |
| 2026-05-05 11:30 | 49.31262 | 6.67310 | 1150 ft | 32 kts | 82° |
| 2026-05-05 11:30 | 49.31296 | 6.67559 | 1144 ft | 13 kts | 196° |
| 2026-05-05 11:31 | 49.31204 | 6.67195 | 1257 ft | 58 kts | 249° |
| 2026-05-05 11:31 | 49.31289 | 6.66507 | 1644 ft | 86 kts | 307° |
| 2026-05-05 11:31 | 49.31910 | 6.66117 | 1918 ft | 104 kts | 339° |
| 2026-05-05 11:31 | 49.32631 | 6.65788 | 2082 ft | 114 kts | 342° |
| 2026-05-05 11:32 | 49.33430 | 6.65501 | 2161 ft | 121 kts | 344° |
| 2026-05-05 11:32 | 49.34272 | 6.65209 | 2179 ft | 126 kts | 344° |
| 2026-05-05 11:32 | 49.35140 | 6.64900 | 2177 ft | 129 kts | 344° |
| 2026-05-05 11:32 | 49.36031 | 6.64583 | 2175 ft | 133 kts | 345° |
| 2026-05-05 11:33 | 49.36915 | 6.64157 | 2183 ft | 133 kts | 334° |
| 2026-05-05 11:33 | 49.37769 | 6.63602 | 2177 ft | 133 kts | 332° |
| 2026-05-05 11:33 | 49.38611 | 6.63036 | 2224 ft | 130 kts | 332° |
| 2026-05-05 11:33 | 49.39416 | 6.62463 | 2321 ft | 127 kts | 332° |
| 2026-05-05 11:34 | 49.40222 | 6.61899 | 2421 ft | 126 kts | 333° |
| 2026-05-05 11:34 | 49.41010 | 6.61333 | 2522 ft | 124 kts | 332° |
| 2026-05-05 11:34 | 49.41796 | 6.60771 | 2618 ft | 126 kts | 332° |
| 2026-05-05 11:34 | 49.42618 | 6.60203 | 2722 ft | 134 kts | 332° |
| 2026-05-05 11:35 | 49.43470 | 6.59632 | 2889 ft | 131 kts | 330° |
| 2026-05-05 11:35 | 49.44328 | 6.59082 | 2960 ft | 136 kts | 332° |
| 2026-05-05 11:35 | 49.45181 | 6.58507 | 2989 ft | 133 kts | 332° |
| 2026-05-05 11:35 | 49.46011 | 6.57916 | 3013 ft | 129 kts | 331° |
| 2026-05-05 11:36 | 49.46820 | 6.57344 | 3011 ft | 128 kts | 334° |
| 2026-05-05 11:36 | 49.47678 | 6.56883 | 3015 ft | 132 kts | 339° |
| 2026-05-05 11:36 | 49.48542 | 6.56462 | 3020 ft | 130 kts | 339° |
| 2026-05-05 11:36 | 49.49417 | 6.56033 | 3011 ft | 133 kts | 339° |
| 2026-05-05 11:37 | 49.50321 | 6.55604 | 2987 ft | 134 kts | 339° |
| 2026-05-05 11:37 | 49.51206 | 6.55198 | 2994 ft | 133 kts | 340° |
| 2026-05-05 11:37 | 49.52043 | 6.54808 | 3009 ft | 127 kts | 340° |
| 2026-05-05 11:37 | 49.52889 | 6.54407 | 3019 ft | 127 kts | 338° |
| 2026-05-05 11:38 | 49.53724 | 6.54003 | 3013 ft | 126 kts | 339° |
| 2026-05-05 11:38 | 49.54568 | 6.53592 | 3014 ft | 127 kts | 339° |
| 2026-05-05 11:38 | 49.55416 | 6.53177 | 3009 ft | 129 kts | 339° |
| 2026-05-05 11:38 | 49.56268 | 6.52763 | 3013 ft | 127 kts | 339° |
| 2026-05-05 11:39 | 49.57124 | 6.52345 | 3010 ft | 131 kts | 340° |
| 2026-05-05 11:39 | 49.57991 | 6.51920 | 3016 ft | 129 kts | 340° |
| 2026-05-05 11:39 | 49.58839 | 6.51501 | 3008 ft | 128 kts | 341° |
| 2026-05-05 11:39 | 49.59694 | 6.51082 | 3012 ft | 129 kts | 340° |
| 2026-05-05 11:40 | 49.60543 | 6.50660 | 3015 ft | 128 kts | 340° |
| 2026-05-05 11:40 | 49.61374 | 6.50246 | 3011 ft | 126 kts | 340° |
| 2026-05-05 11:40 | 49.62213 | 6.49827 | 3011 ft | 128 kts | 341° |
| 2026-05-05 11:40 | 49.63076 | 6.49397 | 3013 ft | 130 kts | 341° |
| 2026-05-05 11:41 | 49.63932 | 6.48968 | 3010 ft | 129 kts | 340° |
| 2026-05-05 11:41 | 49.64780 | 6.48543 | 3009 ft | 127 kts | 340° |
| 2026-05-05 11:41 | 49.65624 | 6.48119 | 3011 ft | 128 kts | 340° |
| 2026-05-05 11:41 | 49.66463 | 6.47695 | 3024 ft | 123 kts | 340° |
| 2026-05-05 11:42 | 49.67288 | 6.47270 | 3019 ft | 127 kts | 339° |
| 2026-05-05 11:42 | 49.68079 | 6.46860 | 3028 ft | 114 kts | 339° |
| 2026-05-05 11:42 | 49.68808 | 6.46424 | 3029 ft | 108 kts | 323° |
| 2026-05-05 11:42 | 49.69217 | 6.45525 | 3010 ft | 102 kts | 276° |
| 2026-05-05 11:43 | 49.69254 | 6.44463 | 3002 ft | 100 kts | 263° |
| 2026-05-05 11:43 | 49.69234 | 6.43411 | 3029 ft | 96 kts | 260° |
| 2026-05-05 11:43 | 49.69157 | 6.42363 | 2989 ft | 103 kts | 256° |
| 2026-05-05 11:43 | 49.69023 | 6.41269 | 2998 ft | 102 kts | 252° |
| 2026-05-05 11:44 | 49.68846 | 6.40219 | 2996 ft | 101 kts | 249° |
| 2026-05-05 11:44 | 49.68632 | 6.39170 | 3002 ft | 104 kts | 248° |
| 2026-05-05 11:44 | 49.68392 | 6.38157 | 3003 ft | 99 kts | 245° |
| 2026-05-05 11:44 | 49.68130 | 6.37149 | 3006 ft | 102 kts | 243° |
| 2026-05-05 11:45 | 49.67855 | 6.36165 | 2998 ft | 99 kts | 242° |
| 2026-05-05 11:45 | 49.67568 | 6.35189 | 3011 ft | 98 kts | 240° |
| 2026-05-05 11:45 | 49.67376 | 6.34562 | 3013 ft | 97 kts | 240° |